sensor_id;sensor_type;location;lat;lon;timestamp;pressure;altitude;pressure_sealevel;temperature;humidity
61488;BME280;47351;53.326;-6.298;2023-02-28T00:02:20;103413.17;;;6.85;73.52
61488;BME280;47351;53.326;-6.298;2023-02-28T00:05:23;103413.52;;;6.86;73.63
61488;BME280;47351;53.326;-6.298;2023-02-28T00:08:32;103418.97;;;6.87;73.71
61488;BME280;47351;53.326;-6.298;2023-02-28T00:11:34;103413.57;;;6.89;73.85
61488;BME280;47351;53.326;-6.298;2023-02-28T00:14:43;103417.51;;;6.92;74.10
61488;BME280;47351;53.326;-6.298;2023-02-28T00:17:51;103424.27;;;6.96;74.17
61488;BME280;47351;53.326;-6.298;2023-02-28T00:21:00;103422.45;;;7.01;74.50
61488;BME280;47351;53.326;-6.298;2023-02-28T00:23:48;103421.67;;;7.06;74.59
61488;BME280;47351;53.326;-6.298;2023-02-28T00:26:50;103418.81;;;7.10;74.66
61488;BME280;47351;53.326;-6.298;2023-02-28T00:29:43;103415.38;;;7.15;74.78
61488;BME280;47351;53.326;-6.298;2023-02-28T00:32:50;103415.83;;;7.21;74.89
61488;BME280;47351;53.326;-6.298;2023-02-28T00:35:39;103420.47;;;7.25;74.92
61488;BME280;47351;53.326;-6.298;2023-02-28T00:38:42;103425.90;;;7.26;74.79
61488;BME280;47351;53.326;-6.298;2023-02-28T00:41:38;103430.30;;;7.27;74.97
61488;BME280;47351;53.326;-6.298;2023-02-28T00:44:31;103433.27;;;7.29;75.03
61488;BME280;47351;53.326;-6.298;2023-02-28T00:47:39;103429.11;;;7.30;75.11
61488;BME280;47351;53.326;-6.298;2023-02-28T00:50:49;103431.47;;;7.29;75.09
61488;BME280;47351;53.326;-6.298;2023-02-28T00:53:57;103432.23;;;7.28;75.13
61488;BME280;47351;53.326;-6.298;2023-02-28T00:56:46;103430.48;;;7.27;75.24
61488;BME280;47351;53.326;-6.298;2023-02-28T00:59:55;103431.63;;;7.26;75.30
61488;BME280;47351;53.326;-6.298;2023-02-28T01:02:53;103428.11;;;7.25;75.40
61488;BME280;47351;53.326;-6.298;2023-02-28T01:06:01;103434.02;;;7.24;75.67
61488;BME280;47351;53.326;-6.298;2023-02-28T01:08:59;103434.27;;;7.22;75.76
61488;BME280;47351;53.326;-6.298;2023-02-28T01:12:07;103438.60;;;7.20;75.81
61488;BME280;47351;53.326;-6.298;2023-02-28T01:15:16;103443.46;;;7.19;75.95
61488;BME280;47351;53.326;-6.298;2023-02-28T01:18:25;103440.31;;;7.18;76.17
61488;BME280;47351;53.326;-6.298;2023-02-28T01:21:34;103449.55;;;7.18;76.21
61488;BME280;47351;53.326;-6.298;2023-02-28T01:24:43;103448.18;;;7.17;76.35
61488;BME280;47351;53.326;-6.298;2023-02-28T01:27:52;103445.53;;;7.17;76.49
61488;BME280;47351;53.326;-6.298;2023-02-28T01:30:50;103441.33;;;7.15;76.55
61488;BME280;47351;53.326;-6.298;2023-02-28T01:33:58;103443.86;;;7.14;76.68
61488;BME280;47351;53.326;-6.298;2023-02-28T01:37:00;103441.08;;;7.13;76.75
61488;BME280;47351;53.326;-6.298;2023-02-28T01:40:05;103444.69;;;7.11;76.83
61488;BME280;47351;53.326;-6.298;2023-02-28T01:43:08;103443.32;;;7.10;76.92
61488;BME280;47351;53.326;-6.298;2023-02-28T01:46:25;103447.27;;;7.10;76.93
61488;BME280;47351;53.326;-6.298;2023-02-28T01:49:34;103446.58;;;7.09;76.84
61488;BME280;47351;53.326;-6.298;2023-02-28T01:52:35;103445.98;;;7.11;76.85
61488;BME280;47351;53.326;-6.298;2023-02-28T01:55:27;103444.50;;;7.12;76.85
61488;BME280;47351;53.326;-6.298;2023-02-28T01:58:36;103438.74;;;7.14;76.80
61488;BME280;47351;53.326;-6.298;2023-02-28T02:01:45;103438.46;;;7.16;76.72
61488;BME280;47351;53.326;-6.298;2023-02-28T02:04:45;103442.72;;;7.19;76.66
61488;BME280;47351;53.326;-6.298;2023-02-28T02:07:54;103439.92;;;7.23;76.53
61488;BME280;47351;53.326;-6.298;2023-02-28T02:10:57;103435.34;;;7.26;76.50
61488;BME280;47351;53.326;-6.298;2023-02-28T02:13:57;103431.70;;;7.28;76.24
61488;BME280;47351;53.326;-6.298;2023-02-28T02:17:12;103428.21;;;7.30;76.22
61488;BME280;47351;53.326;-6.298;2023-02-28T02:20:20;103429.21;;;7.32;76.20
61488;BME280;47351;53.326;-6.298;2023-02-28T02:26:58;103434.52;;;7.36;76.10
61488;BME280;47351;53.326;-6.298;2023-02-28T02:30:35;103435.22;;;7.36;75.97
61488;BME280;47351;53.326;-6.298;2023-02-28T02:33:37;103440.58;;;7.36;75.89
61488;BME280;47351;53.326;-6.298;2023-02-28T02:36:47;103442.63;;;7.33;75.91
61488;BME280;47351;53.326;-6.298;2023-02-28T02:39:52;103441.20;;;7.30;75.89
61488;BME280;47351;53.326;-6.298;2023-02-28T02:43:03;103443.14;;;7.26;75.94
61488;BME280;47351;53.326;-6.298;2023-02-28T02:46:14;103442.61;;;7.23;75.95
61488;BME280;47351;53.326;-6.298;2023-02-28T02:49:17;103439.71;;;7.19;76.12
61488;BME280;47351;53.326;-6.298;2023-02-28T02:52:32;103439.52;;;7.16;76.24
61488;BME280;47351;53.326;-6.298;2023-02-28T02:55:37;103435.07;;;7.13;76.34
61488;BME280;47351;53.326;-6.298;2023-02-28T02:58:47;103435.67;;;7.11;76.44
61488;BME280;47351;53.326;-6.298;2023-02-28T03:01:57;103430.08;;;7.09;76.60
61488;BME280;47351;53.326;-6.298;2023-02-28T03:04:59;103431.09;;;7.06;76.64
61488;BME280;47351;53.326;-6.298;2023-02-28T03:07:55;103430.08;;;7.05;76.69
61488;BME280;47351;53.326;-6.298;2023-02-28T03:10:56;103428.39;;;7.03;76.73
61488;BME280;47351;53.326;-6.298;2023-02-28T03:14:10;103430.94;;;7.02;76.80
61488;BME280;47351;53.326;-6.298;2023-02-28T03:17:22;103431.16;;;7.01;76.96
61488;BME280;47351;53.326;-6.298;2023-02-28T03:20:30;103433.69;;;7.00;77.17
61488;BME280;47351;53.326;-6.298;2023-02-28T03:23:37;103437.27;;;6.99;77.11
61488;BME280;47351;53.326;-6.298;2023-02-28T03:26:52;103443.89;;;6.98;77.28
61488;BME280;47351;53.326;-6.298;2023-02-28T03:30:03;103443.51;;;6.98;77.38
61488;BME280;47351;53.326;-6.298;2023-02-28T03:33:08;103443.11;;;6.99;77.52
61488;BME280;47351;53.326;-6.298;2023-02-28T03:36:02;103443.56;;;7.01;77.60
61488;BME280;47351;53.326;-6.298;2023-02-28T03:39:13;103446.14;;;7.03;77.74
61488;BME280;47351;53.326;-6.298;2023-02-28T03:42:14;103448.35;;;7.05;77.80
61488;BME280;47351;53.326;-6.298;2023-02-28T03:45:14;103449.67;;;7.08;77.85
61488;BME280;47351;53.326;-6.298;2023-02-28T03:48:07;103452.53;;;7.11;77.92
61488;BME280;47351;53.326;-6.298;2023-02-28T03:51:14;103451.11;;;7.15;78.10
61488;BME280;47351;53.326;-6.298;2023-02-28T03:54:24;103450.02;;;7.19;77.93
61488;BME280;47351;53.326;-6.298;2023-02-28T03:57:35;103451.97;;;7.23;78.06
61488;BME280;47351;53.326;-6.298;2023-02-28T04:00:45;103454.48;;;7.27;78.05
61488;BME280;47351;53.326;-6.298;2023-02-28T04:03:44;103452.77;;;7.29;77.95
61488;BME280;47351;53.326;-6.298;2023-02-28T04:06:35;103454.05;;;7.32;78.00
61488;BME280;47351;53.326;-6.298;2023-02-28T04:09:38;103448.61;;;7.35;78.06
61488;BME280;47351;53.326;-6.298;2023-02-28T04:12:34;103451.19;;;7.37;78.01
61488;BME280;47351;53.326;-6.298;2023-02-28T04:15:27;103448.98;;;7.38;77.75
61488;BME280;47351;53.326;-6.298;2023-02-28T04:18:18;103450.92;;;7.38;77.49
61488;BME280;47351;53.326;-6.298;2023-02-28T04:21:26;103453.59;;;7.38;77.44
61488;BME280;47351;53.326;-6.298;2023-02-28T04:24:35;103453.07;;;7.38;77.36
61488;BME280;47351;53.326;-6.298;2023-02-28T04:27:43;103457.23;;;7.36;77.35
61488;BME280;47351;53.326;-6.298;2023-02-28T04:30:54;103463.56;;;7.34;77.25
61488;BME280;47351;53.326;-6.298;2023-02-28T04:34:03;103466.91;;;7.31;77.22
61488;BME280;47351;53.326;-6.298;2023-02-28T04:37:04;103471.16;;;7.27;77.12
61488;BME280;47351;53.326;-6.298;2023-02-28T04:40:15;103475.91;;;7.24;77.11
61488;BME280;47351;53.326;-6.298;2023-02-28T04:43:23;103472.34;;;7.21;77.10
61488;BME280;47351;53.326;-6.298;2023-02-28T04:46:32;103476.73;;;7.18;77.07
61488;BME280;47351;53.326;-6.298;2023-02-28T04:49:25;103482.70;;;7.15;77.11
61488;BME280;47351;53.326;-6.298;2023-02-28T04:52:34;103485.70;;;7.12;77.23
61488;BME280;47351;53.326;-6.298;2023-02-28T04:55:39;103484.05;;;7.09;77.49
61488;BME280;47351;53.326;-6.298;2023-02-28T04:58:48;103491.11;;;7.06;77.75
61488;BME280;47351;53.326;-6.298;2023-02-28T05:01:57;103491.27;;;7.03;78.04
61488;BME280;47351;53.326;-6.298;2023-02-28T05:05:06;103489.48;;;6.99;78.11
61488;BME280;47351;53.326;-6.298;2023-02-28T05:08:03;103490.22;;;6.93;78.09
61488;BME280;47351;53.326;-6.298;2023-02-28T05:11:14;103488.92;;;6.87;77.83
61488;BME280;47351;53.326;-6.298;2023-02-28T05:14:06;103485.84;;;6.80;77.76
61488;BME280;47351;53.326;-6.298;2023-02-28T05:17:15;103497.40;;;6.75;77.95
61488;BME280;47351;53.326;-6.298;2023-02-28T05:20:08;103504.84;;;6.72;78.29
61488;BME280;47351;53.326;-6.298;2023-02-28T05:23:06;103506.27;;;6.67;78.35
61488;BME280;47351;53.326;-6.298;2023-02-28T05:26:05;103510.70;;;6.59;78.38
61488;BME280;47351;53.326;-6.298;2023-02-28T05:28:56;103509.86;;;6.49;78.57
61488;BME280;47351;53.326;-6.298;2023-02-28T05:31:58;103513.85;;;6.42;79.23
61488;BME280;47351;53.326;-6.298;2023-02-28T05:35:07;103517.03;;;6.38;79.96
61488;BME280;47351;53.326;-6.298;2023-02-28T05:38:10;103519.05;;;6.36;80.43
61488;BME280;47351;53.326;-6.298;2023-02-28T05:40:58;103519.19;;;6.33;80.50
61488;BME280;47351;53.326;-6.298;2023-02-28T05:43:49;103516.71;;;6.29;80.54
61488;BME280;47351;53.326;-6.298;2023-02-28T05:46:57;103521.34;;;6.23;80.69
61488;BME280;47351;53.326;-6.298;2023-02-28T05:50:00;103526.11;;;6.20;81.13
61488;BME280;47351;53.326;-6.298;2023-02-28T05:53:08;103531.82;;;6.19;81.71
61488;BME280;47351;53.326;-6.298;2023-02-28T05:56:08;103530.58;;;6.19;81.89
61488;BME280;47351;53.326;-6.298;2023-02-28T05:59:15;103527.55;;;6.19;82.25
61488;BME280;47351;53.326;-6.298;2023-02-28T06:02:15;103524.58;;;6.22;82.71
61488;BME280;47351;53.326;-6.298;2023-02-28T06:05:24;103525.07;;;6.28;83.27
61488;BME280;47351;53.326;-6.298;2023-02-28T06:08:33;103525.52;;;6.34;83.49
61488;BME280;47351;53.326;-6.298;2023-02-28T06:11:41;103525.54;;;6.38;83.39
61488;BME280;47351;53.326;-6.298;2023-02-28T06:14:50;103523.99;;;6.41;83.21
61488;BME280;47351;53.326;-6.298;2023-02-28T06:17:54;103524.64;;;6.43;83.11
61488;BME280;47351;53.326;-6.298;2023-02-28T06:20:52;103521.29;;;6.42;82.94
61488;BME280;47351;53.326;-6.298;2023-02-28T06:23:57;103520.89;;;6.39;82.66
61488;BME280;47351;53.326;-6.298;2023-02-28T06:26:45;103525.61;;;6.36;82.70
61488;BME280;47351;53.326;-6.298;2023-02-28T06:29:57;103523.50;;;6.32;82.70
61488;BME280;47351;53.326;-6.298;2023-02-28T06:33:05;103525.12;;;6.27;82.76
61488;BME280;47351;53.326;-6.298;2023-02-28T06:36:14;103529.95;;;6.21;82.89
61488;BME280;47351;53.326;-6.298;2023-02-28T06:39:10;103533.81;;;6.18;82.86
61488;BME280;47351;53.326;-6.298;2023-02-28T06:42:18;103537.04;;;6.12;82.79
61488;BME280;47351;53.326;-6.298;2023-02-28T06:45:11;103545.06;;;6.07;82.79
61488;BME280;47351;53.326;-6.298;2023-02-28T06:48:12;103549.85;;;6.02;82.93
61488;BME280;47351;53.326;-6.298;2023-02-28T06:51:18;103549.86;;;5.97;83.23
61488;BME280;47351;53.326;-6.298;2023-02-28T06:54:23;103552.86;;;5.92;83.51
61488;BME280;47351;53.326;-6.298;2023-02-28T06:57:33;103560.49;;;5.87;83.63
61488;BME280;47351;53.326;-6.298;2023-02-28T07:00:33;103564.95;;;5.81;83.80
61488;BME280;47351;53.326;-6.298;2023-02-28T07:03:32;103572.90;;;5.77;84.15
61488;BME280;47351;53.326;-6.298;2023-02-28T07:06:38;103576.85;;;5.76;84.52
61488;BME280;47351;53.326;-6.298;2023-02-28T07:09:39;103577.14;;;5.73;84.74
61488;BME280;47351;53.326;-6.298;2023-02-28T07:12:33;103578.48;;;5.71;84.99
61488;BME280;47351;53.326;-6.298;2023-02-28T07:15:42;103584.92;;;5.69;85.20
61488;BME280;47351;53.326;-6.298;2023-02-28T07:18:52;103585.29;;;5.69;85.48
61488;BME280;47351;53.326;-6.298;2023-02-28T07:22:01;103587.02;;;5.70;85.81
61488;BME280;47351;53.326;-6.298;2023-02-28T07:25:10;103587.80;;;5.72;86.23
61488;BME280;47351;53.326;-6.298;2023-02-28T07:28:18;103587.86;;;5.75;86.46
61488;BME280;47351;53.326;-6.298;2023-02-28T07:31:26;103590.59;;;5.78;86.56
61488;BME280;47351;53.326;-6.298;2023-02-28T07:34:28;103591.02;;;5.81;86.81
61488;BME280;47351;53.326;-6.298;2023-02-28T07:37:21;103592.30;;;5.85;87.08
61488;BME280;47351;53.326;-6.298;2023-02-28T07:40:21;103597.64;;;5.89;87.20
61488;BME280;47351;53.326;-6.298;2023-02-28T07:43:29;103600.20;;;5.92;87.34
61488;BME280;47351;53.326;-6.298;2023-02-28T07:46:21;103601.08;;;5.92;87.08
61488;BME280;47351;53.326;-6.298;2023-02-28T07:49:29;103601.61;;;5.87;86.73
61488;BME280;47351;53.326;-6.298;2023-02-28T07:52:30;103603.95;;;5.81;86.58
61488;BME280;47351;53.326;-6.298;2023-02-28T07:55:33;103611.73;;;5.77;86.75
61488;BME280;47351;53.326;-6.298;2023-02-28T07:58:42;103614.30;;;5.75;86.97
61488;BME280;47351;53.326;-6.298;2023-02-28T08:01:41;103616.06;;;5.75;86.96
61488;BME280;47351;53.326;-6.298;2023-02-28T08:04:52;103619.02;;;5.76;87.03
61488;BME280;47351;53.326;-6.298;2023-02-28T08:08:00;103619.02;;;5.81;87.30
61488;BME280;47351;53.326;-6.298;2023-02-28T08:11:09;103623.15;;;5.90;87.45
61488;BME280;47351;53.326;-6.298;2023-02-28T08:14:02;103626.55;;;5.98;87.12
61488;BME280;47351;53.326;-6.298;2023-02-28T08:16:51;103627.20;;;6.10;87.07
61488;BME280;47351;53.326;-6.298;2023-02-28T08:19:39;103626.34;;;6.24;86.90
61488;BME280;47351;53.326;-6.298;2023-02-28T08:22:38;103627.13;;;6.36;86.32
61488;BME280;47351;53.326;-6.298;2023-02-28T08:25:53;103626.66;;;6.47;86.03
61488;BME280;47351;53.326;-6.298;2023-02-28T08:28:52;103624.09;;;6.54;85.28
61488;BME280;47351;53.326;-6.298;2023-02-28T08:31:47;103623.27;;;6.62;85.01
61488;BME280;47351;53.326;-6.298;2023-02-28T08:34:56;103624.20;;;6.69;84.66
61488;BME280;47351;53.326;-6.298;2023-02-28T08:37:50;103627.55;;;6.75;84.51
61488;BME280;47351;53.326;-6.298;2023-02-28T08:40:41;103622.76;;;6.74;83.92
61488;BME280;47351;53.326;-6.298;2023-02-28T08:43:32;103622.17;;;6.76;83.66
61488;BME280;47351;53.326;-6.298;2023-02-28T08:46:26;103625.88;;;6.76;83.58
61488;BME280;47351;53.326;-6.298;2023-02-28T08:49:19;103627.17;;;6.75;83.29
61488;BME280;47351;53.326;-6.298;2023-02-28T08:52:18;103625.80;;;6.73;83.11
61488;BME280;47351;53.326;-6.298;2023-02-28T08:55:26;103628.17;;;6.76;83.18
61488;BME280;47351;53.326;-6.298;2023-02-28T08:58:38;103633.65;;;6.77;83.00
61488;BME280;47351;53.326;-6.298;2023-02-28T09:01:27;103632.20;;;6.78;82.85
61488;BME280;47351;53.326;-6.298;2023-02-28T09:04:17;103635.52;;;6.84;82.88
61488;BME280;47351;53.326;-6.298;2023-02-28T09:07:08;103635.06;;;6.90;82.97
61488;BME280;47351;53.326;-6.298;2023-02-28T09:09:59;103638.96;;;6.94;82.66
61488;BME280;47351;53.326;-6.298;2023-02-28T09:12:48;103638.27;;;6.99;82.56
61488;BME280;47351;53.326;-6.298;2023-02-28T09:19:26;103640.70;;;7.09;81.95
61488;BME280;47351;53.326;-6.298;2023-02-28T09:29:34;103647.51;;;7.20;80.36
61488;BME280;47351;53.326;-6.298;2023-02-28T09:32:25;103649.30;;;7.24;80.04
61488;BME280;47351;53.326;-6.298;2023-02-28T09:39:01;103652.97;;;7.38;79.45
61488;BME280;47351;53.326;-6.298;2023-02-28T09:42:38;103653.35;;;7.58;78.99
61488;BME280;47351;53.326;-6.298;2023-02-28T09:45:29;103652.30;;;7.79;78.58
61488;BME280;47351;53.326;-6.298;2023-02-28T09:48:21;103652.64;;;7.87;77.80
61488;BME280;47351;53.326;-6.298;2023-02-28T09:51:12;103653.23;;;7.97;77.79
61488;BME280;47351;53.326;-6.298;2023-02-28T09:54:03;103650.51;;;8.07;76.97
61488;BME280;47351;53.326;-6.298;2023-02-28T09:56:53;103652.33;;;8.13;76.48
61488;BME280;47351;53.326;-6.298;2023-02-28T09:59:51;103649.29;;;8.25;76.10
61488;BME280;47351;53.326;-6.298;2023-02-28T10:02:44;103639.14;;;8.56;75.86
61488;BME280;47351;53.326;-6.298;2023-02-28T10:05:36;103636.33;;;9.00;75.49
61488;BME280;47351;53.326;-6.298;2023-02-28T10:08:32;103637.29;;;9.41;74.68
61488;BME280;47351;53.326;-6.298;2023-02-28T10:11:21;103633.55;;;9.58;74.05
61488;BME280;47351;53.326;-6.298;2023-02-28T10:14:12;103635.51;;;9.58;73.20
61488;BME280;47351;53.326;-6.298;2023-02-28T10:17:03;103635.61;;;9.49;72.80
61488;BME280;47351;53.326;-6.298;2023-02-28T10:19:56;103635.84;;;9.44;72.78
61488;BME280;47351;53.326;-6.298;2023-02-28T10:26:05;103632.50;;;9.88;71.86
61488;BME280;47351;53.326;-6.298;2023-02-28T10:28:58;103640.30;;;9.99;71.24
61488;BME280;47351;53.326;-6.298;2023-02-28T10:31:50;103642.20;;;10.07;70.87
61488;BME280;47351;53.326;-6.298;2023-02-28T10:34:38;103643.73;;;10.01;69.91
61488;BME280;47351;53.326;-6.298;2023-02-28T10:37:41;103645.86;;;10.05;69.31
61488;BME280;47351;53.326;-6.298;2023-02-28T10:41:01;103641.15;;;10.23;69.12
61488;BME280;47351;53.326;-6.298;2023-02-28T10:44:31;103647.44;;;10.15;69.02
61488;BME280;47351;53.326;-6.298;2023-02-28T10:47:40;103647.08;;;9.89;68.00
61488;BME280;47351;53.326;-6.298;2023-02-28T10:50:44;103645.09;;;9.92;67.42
61488;BME280;47351;53.326;-6.298;2023-02-28T10:53:45;103643.46;;;10.06;66.90
61488;BME280;47351;53.326;-6.298;2023-02-28T10:57:16;103647.27;;;10.25;66.39
61488;BME280;47351;53.326;-6.298;2023-02-28T11:00:12;103641.25;;;10.79;66.28
61488;BME280;47351;53.326;-6.298;2023-02-28T11:03:02;103643.38;;;11.43;65.62
61488;BME280;47351;53.326;-6.298;2023-02-28T11:09:35;103635.16;;;12.07;62.98
61488;BME280;47351;53.326;-6.298;2023-02-28T11:12:25;103637.45;;;12.11;62.39
61488;BME280;47351;53.326;-6.298;2023-02-28T11:19:19;103622.92;;;12.75;61.01
61488;BME280;47351;53.326;-6.298;2023-02-28T11:31:15;103619.70;;;12.94;58.46
61488;BME280;47351;53.326;-6.298;2023-02-28T11:46:35;103636.09;;;11.84;59.37
61488;BME280;47351;53.326;-6.298;2023-02-28T11:49:50;103634.70;;;11.48;59.46
61488;BME280;47351;53.326;-6.298;2023-02-28T11:53:05;103628.21;;;10.97;60.01
61488;BME280;47351;53.326;-6.298;2023-02-28T12:00:01;103643.66;;;9.79;61.95
61488;BME280;47351;53.326;-6.298;2023-02-28T12:03:06;103640.86;;;9.37;62.88
61488;BME280;47351;53.326;-6.298;2023-02-28T12:06:10;103645.55;;;9.18;63.49
61488;BME280;47351;53.326;-6.298;2023-02-28T12:43:04;103607.86;;;11.30;59.33
61488;BME280;47351;53.326;-6.298;2023-02-28T12:46:00;103604.88;;;10.99;58.85
61488;BME280;47351;53.326;-6.298;2023-02-28T12:48:55;103602.70;;;10.50;59.06
61488;BME280;47351;53.326;-6.298;2023-02-28T12:51:45;103604.59;;;10.06;59.65
61488;BME280;47351;53.326;-6.298;2023-02-28T12:54:40;103606.45;;;9.75;60.31
61488;BME280;47351;53.326;-6.298;2023-02-28T12:57:39;103608.42;;;9.54;60.72
61488;BME280;47351;53.326;-6.298;2023-02-28T13:00:31;103605.46;;;9.42;60.99
61488;BME280;47351;53.326;-6.298;2023-02-28T13:04:00;103601.57;;;9.45;61.27
61488;BME280;47351;53.326;-6.298;2023-02-28T13:07:03;103602.80;;;9.83;61.18
61488;BME280;47351;53.326;-6.298;2023-02-28T13:10:38;103595.41;;;10.07;60.64
61488;BME280;47351;53.326;-6.298;2023-02-28T13:13:30;103595.98;;;9.87;60.47
61488;BME280;47351;53.326;-6.298;2023-02-28T13:19:42;103592.54;;;9.27;61.27
61488;BME280;47351;53.326;-6.298;2023-02-28T13:22:39;103590.23;;;9.02;61.68
61488;BME280;47351;53.326;-6.298;2023-02-28T13:32:19;103593.75;;;8.53;62.61
61488;BME280;47351;53.326;-6.298;2023-02-28T13:38:36;103581.55;;;8.40;63.10
61488;BME280;47351;53.326;-6.298;2023-02-28T13:41:44;103580.61;;;8.36;63.13
61488;BME280;47351;53.326;-6.298;2023-02-28T13:47:50;103575.67;;;8.32;63.15
61488;BME280;47351;53.326;-6.298;2023-02-28T13:50:40;103574.05;;;8.25;62.83
61488;BME280;47351;53.326;-6.298;2023-02-28T13:53:46;103572.42;;;8.18;63.26
61488;BME280;47351;53.326;-6.298;2023-02-28T13:56:42;103565.96;;;8.15;63.50
61488;BME280;47351;53.326;-6.298;2023-02-28T13:59:24;103560.11;;;8.11;63.64
61488;BME280;47351;53.326;-6.298;2023-02-28T14:03:13;103560.95;;;8.01;63.74
61488;BME280;47351;53.326;-6.298;2023-02-28T14:06:21;103569.23;;;7.95;64.04
61488;BME280;47351;53.326;-6.298;2023-02-28T14:09:36;103567.30;;;7.94;64.10
61488;BME280;47351;53.326;-6.298;2023-02-28T14:13:42;103566.65;;;7.97;64.22
61488;BME280;47351;53.326;-6.298;2023-02-28T14:16:56;103563.33;;;7.99;64.63
61488;BME280;47351;53.326;-6.298;2023-02-28T14:20:13;103561.21;;;8.10;64.91
61488;BME280;47351;53.326;-6.298;2023-02-28T14:34:58;103548.12;;;8.16;64.49
61488;BME280;47351;53.326;-6.298;2023-02-28T14:39:34;103550.63;;;8.16;64.44
61488;BME280;47351;53.326;-6.298;2023-02-28T14:59:30;103542.37;;;8.06;64.83
61488;BME280;47351;53.326;-6.298;2023-02-28T15:02:38;103538.88;;;8.05;64.63
61488;BME280;47351;53.326;-6.298;2023-02-28T15:12:35;103535.37;;;8.00;64.66
61488;BME280;47351;53.326;-6.298;2023-02-28T15:16:31;103536.61;;;7.96;64.69
61488;BME280;47351;53.326;-6.298;2023-02-28T15:20:13;103537.55;;;7.87;64.66
61488;BME280;47351;53.326;-6.298;2023-02-28T15:23:04;103536.71;;;7.79;64.72
61488;BME280;47351;53.326;-6.298;2023-02-28T15:26:35;103541.27;;;7.72;64.90
61488;BME280;47351;53.326;-6.298;2023-02-28T15:29:41;103536.04;;;7.66;65.15
61488;BME280;47351;53.326;-6.298;2023-02-28T15:33:02;103537.34;;;7.61;65.23
61488;BME280;47351;53.326;-6.298;2023-02-28T15:36:05;103534.18;;;7.57;65.41
61488;BME280;47351;53.326;-6.298;2023-02-28T15:38:56;103536.09;;;7.53;65.49
61488;BME280;47351;53.326;-6.298;2023-02-28T15:42:12;103534.07;;;7.51;65.52
61488;BME280;47351;53.326;-6.298;2023-02-28T15:49:21;103532.33;;;7.46;65.62
61488;BME280;47351;53.326;-6.298;2023-02-28T15:59:36;103533.33;;;7.43;65.24
61488;BME280;47351;53.326;-6.298;2023-02-28T16:02:33;103534.86;;;7.41;65.12
61488;BME280;47351;53.326;-6.298;2023-02-28T16:05:23;103531.42;;;7.38;65.14
61488;BME280;47351;53.326;-6.298;2023-02-28T16:08:17;103530.98;;;7.36;65.10
61488;BME280;47351;53.326;-6.298;2023-02-28T16:11:26;103537.43;;;7.35;65.07
61488;BME280;47351;53.326;-6.298;2023-02-28T16:14:24;103539.86;;;7.32;64.97
61488;BME280;47351;53.326;-6.298;2023-02-28T16:17:16;103539.11;;;7.29;64.99
61488;BME280;47351;53.326;-6.298;2023-02-28T16:20:13;103540.27;;;7.27;65.09
61488;BME280;47351;53.326;-6.298;2023-02-28T16:23:27;103539.83;;;7.25;65.06
61488;BME280;47351;53.326;-6.298;2023-02-28T16:26:18;103543.29;;;7.23;64.90
61488;BME280;47351;53.326;-6.298;2023-02-28T16:29:19;103543.29;;;7.19;64.77
61488;BME280;47351;53.326;-6.298;2023-02-28T16:32:32;103542.93;;;7.15;64.62
61488;BME280;47351;53.326;-6.298;2023-02-28T16:35:25;103543.25;;;7.12;64.67
61488;BME280;47351;53.326;-6.298;2023-02-28T16:38:34;103545.21;;;7.07;64.62
61488;BME280;47351;53.326;-6.298;2023-02-28T16:41:43;103545.88;;;7.01;64.39
61488;BME280;47351;53.326;-6.298;2023-02-28T16:44:36;103543.95;;;6.96;64.49
61488;BME280;47351;53.326;-6.298;2023-02-28T16:47:38;103545.90;;;6.92;64.60
61488;BME280;47351;53.326;-6.298;2023-02-28T16:50:26;103543.90;;;6.88;64.68
61488;BME280;47351;53.326;-6.298;2023-02-28T16:53:15;103546.27;;;6.86;64.87
61488;BME280;47351;53.326;-6.298;2023-02-28T16:56:24;103547.90;;;6.86;64.99
61488;BME280;47351;53.326;-6.298;2023-02-28T16:59:12;103542.79;;;6.85;65.10
61488;BME280;47351;53.326;-6.298;2023-02-28T17:02:14;103540.00;;;6.84;65.18
61488;BME280;47351;53.326;-6.298;2023-02-28T17:05:10;103541.32;;;6.82;65.32
61488;BME280;47351;53.326;-6.298;2023-02-28T17:08:19;103544.71;;;6.82;65.38
61488;BME280;47351;53.326;-6.298;2023-02-28T17:11:44;103547.05;;;6.80;65.44
61488;BME280;47351;53.326;-6.298;2023-02-28T17:14:37;103548.98;;;6.81;65.55
61488;BME280;47351;53.326;-6.298;2023-02-28T17:17:28;103548.59;;;6.82;65.54
61488;BME280;47351;53.326;-6.298;2023-02-28T17:20:35;103547.11;;;6.84;65.60
61488;BME280;47351;53.326;-6.298;2023-02-28T17:23:24;103545.31;;;6.84;65.54
61488;BME280;47351;53.326;-6.298;2023-02-28T17:26:14;103551.54;;;6.84;65.51
61488;BME280;47351;53.326;-6.298;2023-02-28T17:29:13;103554.58;;;6.83;65.53
61488;BME280;47351;53.326;-6.298;2023-02-28T17:32:02;103554.89;;;6.84;65.67
61488;BME280;47351;53.326;-6.298;2023-02-28T17:35:10;103550.56;;;6.86;65.86
61488;BME280;47351;53.326;-6.298;2023-02-28T17:37:59;103556.06;;;6.86;65.74
61488;BME280;47351;53.326;-6.298;2023-02-28T17:40:47;103557.55;;;6.84;65.79
61488;BME280;47351;53.326;-6.298;2023-02-28T17:43:45;103560.80;;;6.83;65.87
61488;BME280;47351;53.326;-6.298;2023-02-28T17:46:54;103562.16;;;6.80;65.94
61488;BME280;47351;53.326;-6.298;2023-02-28T17:50:03;103563.85;;;6.78;66.10
61488;BME280;47351;53.326;-6.298;2023-02-28T17:53:05;103565.55;;;6.76;66.21
61488;BME280;47351;53.326;-6.298;2023-02-28T17:56:20;103567.63;;;6.73;66.08
61488;BME280;47351;53.326;-6.298;2023-02-28T17:59:30;103567.41;;;6.69;66.02
61488;BME280;47351;53.326;-6.298;2023-02-28T18:02:23;103569.11;;;6.67;66.18
61488;BME280;47351;53.326;-6.298;2023-02-28T18:05:12;103572.55;;;6.65;66.17
61488;BME280;47351;53.326;-6.298;2023-02-28T18:08:15;103575.46;;;6.63;66.28
61488;BME280;47351;53.326;-6.298;2023-02-28T18:11:04;103578.35;;;6.62;66.41
61488;BME280;47351;53.326;-6.298;2023-02-28T18:14:02;103583.00;;;6.61;66.41
61488;BME280;47351;53.326;-6.298;2023-02-28T18:17:10;103591.91;;;6.60;66.54
61488;BME280;47351;53.326;-6.298;2023-02-28T18:20:03;103592.73;;;6.57;66.32
61488;BME280;47351;53.326;-6.298;2023-02-28T18:22:57;103593.18;;;6.55;66.33
61488;BME280;47351;53.326;-6.298;2023-02-28T18:25:48;103595.23;;;6.53;66.36
61488;BME280;47351;53.326;-6.298;2023-02-28T18:28:57;103589.52;;;6.49;66.45